createdAt,value
2019-01-04T00:02:26.050Z,16.60
2019-01-04T00:04:53.649Z,16.60
2019-01-04T00:07:21.114Z,16.70
2019-01-04T00:09:48.581Z,16.70
2019-01-04T00:12:16.041Z,16.60
2019-01-04T00:14:43.502Z,16.60
2019-01-04T00:17:10.973Z,16.60
2019-01-04T00:19:38.442Z,16.60
2019-01-04T00:22:05.908Z,16.60
2019-01-04T00:24:33.370Z,16.60
2019-01-04T00:27:00.833Z,16.60
2019-01-04T00:29:28.299Z,16.60
2019-01-04T00:31:55.768Z,16.60
2019-01-04T00:34:23.224Z,16.60
2019-01-04T00:36:50.697Z,16.60
2019-01-04T00:39:18.150Z,16.60
2019-01-04T00:41:45.623Z,16.60
2019-01-04T00:44:13.091Z,16.60
2019-01-04T00:46:40.553Z,16.60
2019-01-04T00:49:08.025Z,16.60
2019-01-04T00:51:35.488Z,16.60
2019-01-04T00:54:02.978Z,16.60
2019-01-04T00:56:35.021Z,16.60
2019-01-04T00:59:20.588Z,16.60
2019-01-04T01:01:58.645Z,16.60
2019-01-04T01:04:27.765Z,16.60
2019-01-04T01:06:59.525Z,16.60
2019-01-04T01:09:40.425Z,16.60
2019-01-04T01:12:10.098Z,16.60
2019-01-04T01:14:48.250Z,16.70
2019-01-04T01:17:32.177Z,16.60
2019-01-04T01:20:03.810Z,16.60
2019-01-04T01:22:32.911Z,16.60
2019-01-04T01:25:19.021Z,16.60
2019-01-04T01:28:00.157Z,16.50
2019-01-04T01:30:41.466Z,16.60
2019-01-04T01:33:10.556Z,16.50
2019-01-04T01:35:39.659Z,16.60
2019-01-04T01:38:14.813Z,16.60
2019-01-04T01:40:52.913Z,16.50
2019-01-04T01:43:24.770Z,16.60
2019-01-04T01:46:02.665Z,16.60
2019-01-04T01:48:31.766Z,16.50
2019-01-04T01:51:06.861Z,16.50
2019-01-04T01:53:35.953Z,16.50
2019-01-04T01:56:03.418Z,16.60
2019-01-04T01:58:30.886Z,16.50
2019-01-04T02:00:58.373Z,16.50
2019-01-04T02:03:25.839Z,16.50
2019-01-04T02:05:53.627Z,16.50
2019-01-04T02:08:21.093Z,16.60
2019-01-04T02:10:48.569Z,16.50
2019-01-04T02:13:16.040Z,16.60
2019-01-04T02:15:43.502Z,16.60
2019-01-04T02:18:11.017Z,16.60
2019-01-04T02:20:38.481Z,16.60
2019-01-04T02:23:06.034Z,16.60
2019-01-04T02:25:33.491Z,16.60
2019-01-04T02:28:00.958Z,16.60
2019-01-04T02:30:28.422Z,16.60
2019-01-04T02:32:55.965Z,16.60
2019-01-04T02:35:23.430Z,16.60
2019-01-04T02:37:50.902Z,16.50
2019-01-04T02:40:18.375Z,16.60
2019-01-04T02:42:45.829Z,16.60
2019-01-04T02:45:13.306Z,16.60
2019-01-04T02:47:40.773Z,16.60
2019-01-04T02:50:08.250Z,16.60
2019-01-04T02:52:35.713Z,16.60
2019-01-04T02:55:03.185Z,16.60
2019-01-04T02:57:30.734Z,16.50
2019-01-04T02:59:58.317Z,16.60
2019-01-04T03:02:25.774Z,16.60
2019-01-04T03:04:53.242Z,16.60
2019-01-04T03:07:20.710Z,16.60
2019-01-04T03:09:48.178Z,16.50
2019-01-04T03:12:15.642Z,16.50
2019-01-04T03:14:43.118Z,16.50
2019-01-04T03:17:10.587Z,16.50
2019-01-04T03:19:38.069Z,16.50
2019-01-04T03:22:05.544Z,16.50
2019-01-04T03:24:33.011Z,16.50
2019-01-04T03:27:00.478Z,16.60
2019-01-04T03:29:27.939Z,16.60
2019-01-04T03:31:55.414Z,16.50
2019-01-04T03:34:22.879Z,16.50
2019-01-04T03:36:50.346Z,16.60
2019-01-04T03:39:17.813Z,16.50
2019-01-04T03:41:45.278Z,16.50
2019-01-04T03:44:12.746Z,16.60
2019-01-04T03:46:40.318Z,16.50
2019-01-04T03:49:07.782Z,16.50
2019-01-04T03:51:35.346Z,16.50
2019-01-04T03:54:02.825Z,16.50
2019-01-04T03:56:30.311Z,16.60
2019-01-04T03:58:57.777Z,16.60
2019-01-04T04:01:25.258Z,16.50
2019-01-04T04:03:52.713Z,16.60
2019-01-04T04:06:20.198Z,16.50
2019-01-04T04:08:48.026Z,16.50
2019-01-04T04:11:15.502Z,16.50
2019-01-04T04:13:42.970Z,16.50
2019-01-04T04:16:10.443Z,16.50
2019-01-04T04:18:37.910Z,16.50
2019-01-04T04:21:05.386Z,16.60
2019-01-04T04:23:32.853Z,16.50
2019-01-04T04:26:00.317Z,16.60
2019-01-04T04:28:27.797Z,16.50
2019-01-04T04:30:55.274Z,16.60
2019-01-04T04:33:22.745Z,16.50
2019-01-04T04:35:50.214Z,16.60
2019-01-04T04:38:17.681Z,16.50
2019-01-04T04:40:45.155Z,16.50
2019-01-04T04:43:12.647Z,16.50
2019-01-04T04:45:40.142Z,16.50
2019-01-04T04:48:07.666Z,16.50
2019-01-04T04:50:35.128Z,16.50
2019-01-04T04:53:02.606Z,16.60
2019-01-04T04:55:30.067Z,16.50
2019-01-04T04:57:57.548Z,16.50
2019-01-04T05:00:25.062Z,16.50
2019-01-04T05:02:52.538Z,16.50
2019-01-04T05:05:19.997Z,16.50
2019-01-04T05:07:47.478Z,16.50
2019-01-04T05:10:14.946Z,16.50
2019-01-04T05:12:42.412Z,16.50
2019-01-04T05:15:09.874Z,16.50
2019-01-04T05:17:37.362Z,16.50
2019-01-04T05:20:04.817Z,16.50
2019-01-04T05:22:32.280Z,16.50
2019-01-04T05:24:59.747Z,16.50
2019-01-04T05:27:27.291Z,16.50
2019-01-04T05:29:54.758Z,16.50
2019-01-04T05:32:22.225Z,16.50
2019-01-04T05:35:09.120Z,16.50
2019-01-04T05:37:56.002Z,16.50
2019-01-04T05:40:42.882Z,16.50
2019-01-04T05:43:29.757Z,16.50
2019-01-04T05:46:16.642Z,16.50
2019-01-04T05:49:03.566Z,16.50
2019-01-04T05:51:50.450Z,16.50
2019-01-04T05:54:37.350Z,16.50
2019-01-04T05:57:24.247Z,16.50
2019-01-04T06:00:11.143Z,16.50
2019-01-04T06:02:58.030Z,16.50
2019-01-04T06:05:44.919Z,16.50
2019-01-04T06:08:31.815Z,16.50
2019-01-04T07:25:48.275Z,16.40
2019-01-04T07:28:35.193Z,16.40
2019-01-04T07:31:22.082Z,16.30
2019-01-04T07:34:09.082Z,16.30
2019-01-04T07:36:55.965Z,16.20
2019-01-04T07:39:42.871Z,16.20
2019-01-04T07:42:29.753Z,16.10
2019-01-04T07:45:16.850Z,16.00
2019-01-04T07:48:03.745Z,16.00
2019-01-04T07:50:50.639Z,16.00
2019-01-04T07:53:37.542Z,16.00
2019-01-04T07:56:24.435Z,15.90
2019-01-04T07:59:11.341Z,15.90
2019-01-04T08:01:58.231Z,15.90
2019-01-04T08:04:45.134Z,15.90
2019-01-04T08:07:32.012Z,15.90
2019-01-04T08:10:18.950Z,15.80
2019-01-04T16:01:18.500Z,15.40
2019-01-04T16:03:58.033Z,15.40
2019-01-04T16:06:37.658Z,15.40
2019-01-04T16:09:05.673Z,15.40
2019-01-04T16:11:33.221Z,15.40
2019-01-04T16:14:00.713Z,15.40
2019-01-04T16:16:28.173Z,15.40
2019-01-04T16:18:57.165Z,15.40
2019-01-04T16:21:24.654Z,15.40
2019-01-04T16:23:52.131Z,15.40
2019-01-04T16:26:19.599Z,15.40
2019-01-04T16:28:47.080Z,15.40
2019-01-04T16:31:14.550Z,15.40
2019-01-04T16:33:42.025Z,15.40
2019-01-04T16:36:09.533Z,15.40
2019-01-04T16:38:37.025Z,15.40
2019-01-04T16:41:04.489Z,15.40
2019-01-04T16:43:31.988Z,15.40
2019-01-04T16:46:00.828Z,15.40
2019-01-04T16:48:28.348Z,15.40
2019-01-04T16:50:55.819Z,15.40
2019-01-04T16:53:23.286Z,15.40
2019-01-04T16:55:50.848Z,15.40
2019-01-04T16:58:18.315Z,15.40
2019-01-04T17:00:45.789Z,15.40
2019-01-04T17:03:13.249Z,15.40
2019-01-04T17:05:40.731Z,15.40
2019-01-04T17:08:08.198Z,15.40
2019-01-04T17:10:35.679Z,15.40
2019-01-04T17:13:03.146Z,15.40
2019-01-04T17:15:30.631Z,15.40
2019-01-04T17:17:58.096Z,15.40
2019-01-04T17:20:25.560Z,15.40
2019-01-04T17:22:53.099Z,15.40
2019-01-04T17:25:20.566Z,15.40
2019-01-04T17:27:48.034Z,15.40
2019-01-04T17:30:15.503Z,15.40
2019-01-04T17:32:42.970Z,15.40
2019-01-04T17:35:10.471Z,15.40
2019-01-04T17:37:37.933Z,15.40
2019-01-04T17:40:06.562Z,15.40
2019-01-04T17:42:34.046Z,15.40
2019-01-04T17:45:03.092Z,15.40
2019-01-04T17:47:30.851Z,15.40
2019-01-04T17:49:58.314Z,15.40
2019-01-04T17:52:25.862Z,15.40
2019-01-04T17:54:53.326Z,15.40
2019-01-04T17:57:20.798Z,15.40
2019-01-04T17:59:48.269Z,15.40
2019-01-04T18:02:15.834Z,15.40
2019-01-04T18:04:43.298Z,15.40
2019-01-04T18:07:10.777Z,15.40
2019-01-04T18:09:38.245Z,15.40
2019-01-04T18:12:05.861Z,15.40
2019-01-04T18:14:33.382Z,15.40
2019-01-04T18:17:00.841Z,15.40
2019-01-04T18:19:28.316Z,15.40
2019-01-04T18:21:55.782Z,15.40
2019-01-04T18:24:23.259Z,15.40
2019-01-04T18:26:50.732Z,15.40
2019-01-04T18:29:18.210Z,15.40
2019-01-04T18:31:45.679Z,15.40
2019-01-04T18:34:13.166Z,15.40
2019-01-04T18:36:40.632Z,15.40
2019-01-04T18:39:09.486Z,15.40
2019-01-04T18:41:38.047Z,15.40
2019-01-04T18:44:05.558Z,15.40
2019-01-04T18:46:33.377Z,15.40
2019-01-04T18:49:01.138Z,15.40
2019-01-04T18:51:28.621Z,15.40
2019-01-04T18:53:56.099Z,15.40
2019-01-04T18:56:23.568Z,15.40
2019-01-04T18:58:51.062Z,15.40
2019-01-04T19:01:18.521Z,15.40
2019-01-04T19:03:46.013Z,15.40
2019-01-04T19:06:13.486Z,15.40
2019-01-04T19:08:40.959Z,15.40
2019-01-04T19:11:08.692Z,15.40
2019-01-04T19:13:36.255Z,15.40
2019-01-04T19:16:03.830Z,15.40
2019-01-04T19:18:31.310Z,15.40
2019-01-04T19:20:58.771Z,15.40
2019-01-04T19:23:26.238Z,15.40
2019-01-04T19:25:53.711Z,15.40
2019-01-04T19:28:21.174Z,15.40
2019-01-04T19:30:48.641Z,15.40
2019-01-04T19:33:16.111Z,15.40
2019-01-04T19:35:43.593Z,15.40
2019-01-04T19:38:11.057Z,15.40
2019-01-04T19:40:38.522Z,15.40
2019-01-04T19:43:05.989Z,15.40
2019-01-04T19:45:33.465Z,15.40
2019-01-04T19:48:00.938Z,15.40
2019-01-04T19:50:28.396Z,15.40
2019-01-04T19:52:55.873Z,15.40
2019-01-04T19:55:23.421Z,15.40
2019-01-04T19:57:50.933Z,15.40
2019-01-04T20:00:18.408Z,15.40
2019-01-04T20:02:45.894Z,15.40
2019-01-04T20:05:13.366Z,15.40
2019-01-04T20:07:50.140Z,15.40
2019-01-04T20:10:37.162Z,15.40
2019-01-04T20:13:27.368Z,15.40
2019-01-04T20:16:04.049Z,15.40
2019-01-04T20:18:45.291Z,15.40
2019-01-04T20:21:32.333Z,15.40
2019-01-04T20:24:13.492Z,15.40
2019-01-04T20:27:00.790Z,15.30
2019-01-04T20:29:35.870Z,15.30
2019-01-04T20:32:04.974Z,15.30
2019-01-04T20:34:50.712Z,15.30
2019-01-04T20:37:19.821Z,15.30
2019-01-04T20:40:05.298Z,15.30
2019-01-04T20:42:34.416Z,15.30
2019-01-04T20:45:03.526Z,15.30
2019-01-04T20:47:38.666Z,15.30
2019-01-04T20:50:19.879Z,15.30
2019-01-04T20:52:49.099Z,15.40
2019-01-04T20:55:21.186Z,15.40
2019-01-04T20:58:05.110Z,15.40
2019-01-04T21:00:50.478Z,15.30
2019-01-04T21:03:19.579Z,15.40
2019-01-04T21:05:57.945Z,15.30
2019-01-04T21:08:27.058Z,15.30
2019-01-04T21:11:26.669Z,15.30
2019-01-04T21:14:01.582Z,15.30
2019-01-04T21:16:42.795Z,15.30
2019-01-04T21:19:23.965Z,15.30
2019-01-04T21:22:05.553Z,15.30
2019-01-04T21:24:52.743Z,15.30
2019-01-04T21:27:24.837Z,15.30
2019-01-04T21:29:59.555Z,15.30
2019-01-04T21:32:31.655Z,15.30
2019-01-04T21:35:00.757Z,15.30
2019-01-04T21:37:45.985Z,15.30
2019-01-04T21:40:26.992Z,15.30
2019-01-04T21:42:56.107Z,15.30
2019-01-04T21:45:25.220Z,15.30
2019-01-04T21:48:10.969Z,15.30
2019-01-04T21:50:56.837Z,15.30
2019-01-04T21:53:32.067Z,15.30
2019-01-04T21:56:19.669Z,15.30
2019-01-04T21:59:05.350Z,15.30
2019-01-04T22:01:50.907Z,15.30
2019-01-04T22:04:22.657Z,15.30
2019-01-04T22:07:08.129Z,15.30
2019-01-04T22:12:50.224Z,15.30
